createdAt,value
2018-06-25T09:08:20.856Z,1017
2018-06-25T09:21:02.657Z,1017
2018-06-25T09:26:14.713Z,1017
2018-06-25T09:31:26.828Z,1016.9
2018-06-25T09:36:38.934Z,1016.8
2018-06-25T09:41:51.176Z,1016.9
2018-06-25T09:47:02.979Z,1016.9
2018-06-25T09:52:15.129Z,1017
2018-06-25T09:57:27.048Z,1017
2018-06-25T10:02:39.172Z,1017
2018-06-25T10:07:51.245Z,1017.1
2018-06-25T10:13:03.278Z,1017
2018-06-25T10:18:15.429Z,1017
2018-06-25T10:23:27.435Z,1017
2018-06-25T10:28:39.494Z,1017
2018-06-25T10:33:51.639Z,1017
2018-06-25T10:39:03.639Z,1016.9
2018-06-25T10:44:15.791Z,1016.9
2018-06-25T10:49:27.787Z,1017.1
2018-06-25T10:54:39.862Z,1017.1
2018-06-25T10:59:52.025Z,1017
2018-06-25T11:05:04.023Z,1016.9
2018-06-25T11:10:16.254Z,1016.9
2018-06-25T11:15:28.284Z,1016.7
2018-06-25T11:20:40.379Z,1016.8
2018-06-25T11:25:52.325Z,1016.9
2018-06-25T11:31:04.395Z,1016.9
2018-06-25T11:36:16.479Z,1016.8
2018-06-25T11:41:28.699Z,1016.8
2018-06-25T11:46:40.617Z,1016.8
2018-06-25T11:51:52.724Z,1016.8
2018-06-25T11:57:04.809Z,1016.8
2018-06-25T12:02:16.909Z,1016.9
2018-06-25T12:07:29.172Z,1016.8
2018-06-25T12:12:40.996Z,1016.8
2018-06-25T12:23:05.147Z,1016.8
2018-06-25T12:28:17.213Z,1016.8
2018-06-25T12:33:29.363Z,1016.8
2018-06-25T12:38:41.496Z,1016.8
2018-06-25T12:43:53.497Z,1016.7
2018-06-25T12:49:05.730Z,1016.8
2018-06-25T12:54:17.644Z,1016.7
2018-06-25T12:59:29.653Z,1016.8
2018-06-25T13:04:41.800Z,1016.7
2018-06-25T13:09:53.865Z,1016.7
2018-06-25T13:15:05.987Z,1016.9
2018-06-25T13:20:18.085Z,1016.9
2018-06-25T13:25:30.138Z,1016.8
2018-06-25T13:30:42.183Z,1016.6
2018-06-25T13:35:54.231Z,1016.9
2018-06-25T13:41:06.278Z,1016.7
2018-06-25T13:46:18.422Z,1016.5
2018-06-25T13:51:30.408Z,1016.6
2018-06-25T13:56:42.487Z,1016.7
2018-06-25T14:01:54.674Z,1016.5
2018-06-25T14:07:06.729Z,1016.7
2018-06-25T14:12:18.729Z,1016.6
2018-06-25T14:17:31.321Z,1016.5
2018-06-25T14:22:42.953Z,1016.4
2018-06-25T14:27:55.294Z,1016.7
2018-06-25T14:33:25.176Z,1016.5
2018-06-25T14:39:51.235Z,1016.6
2018-06-25T14:46:11.287Z,1016.6
